Time,TemperatureF,DewpointF,PressureIn,WindDirection,WindDirectionDegrees,WindSpeedMPH,WindSpeedGustMPH,Humidity,HourlyPrecipIn,Conditions,Clouds,dailyrainin,SoftwareType,DateUTC
2013-08-31 00:00:00,69.4,67.6,18.34,East,81,0.0,0.0,94,0.00,,,0.07,Wunderground v.1.15,2013-08-31 04:00:00,
2013-08-31 00:05:00,69.3,67.5,18.34,East,81,0.0,0.0,94,0.00,,,0.00,Wunderground v.1.15,2013-08-31 04:05:00,
2013-08-31 00:10:00,69.4,67.6,18.34,East,81,0.0,0.0,94,0.00,,,0.00,Wunderground v.1.15,2013-08-31 04:10:00,
2013-08-31 00:15:00,69.4,67.6,18.34,East,81,0.0,0.0,94,0.00,,,0.00,Wunderground v.1.15,2013-08-31 04:15:00,
2013-08-31 00:20:00,69.5,67.7,18.34,East,81,0.0,0.0,94,0.00,,,0.00,Wunderground v.1.15,2013-08-31 04:20:00,
2013-08-31 00:25:00,69.7,67.9,18.34,East,81,0.0,0.0,94,0.00,,,0.00,Wunderground v.1.15,2013-08-31 04:25:00,
2013-08-31 00:35:00,69.9,67.8,18.34,East,81,0.0,0.0,93,0.00,,,0.00,Wunderground v.1.15,2013-08-31 04:35:00,
2013-08-31 00:45:00,70.1,68.0,18.34,East,81,0.0,0.0,93,0.00,,,0.00,Wunderground v.1.15,2013-08-31 04:45:00,
2013-08-31 00:50:00,70.1,67.7,18.34,East,81,0.0,0.0,92,0.00,,,0.00,Wunderground v.1.15,2013-08-31 04:50:00,
2013-08-31 00:55:00,70.2,67.8,18.34,East,81,0.0,0.0,92,0.00,,,0.00,Wunderground v.1.15,2013-08-31 04:55:00,
2013-08-31 01:00:00,70.3,67.9,18.34,East,81,0.0,0.0,92,0.00,,,0.00,Wunderground v.1.15,2013-08-31 05:00:00,
2013-08-31 01:10:00,70.3,67.5,18.34,East,81,0.0,0.0,91,0.00,,,0.00,Wunderground v.1.15,2013-08-31 05:10:00,
2013-08-31 01:20:00,70.3,67.5,18.34,East,81,0.0,0.0,91,0.00,,,0.00,Wunderground v.1.15,2013-08-31 05:20:00,
2013-08-31 01:25:00,70.3,67.5,18.34,East,81,0.0,0.0,91,0.00,,,0.00,Wunderground v.1.15,2013-08-31 05:25:00,
2013-08-31 01:35:00,70.5,67.7,18.34,East,81,0.0,1.0,91,0.00,,,0.00,Wunderground v.1.15,2013-08-31 05:35:00,
2013-08-31 01:40:00,70.6,67.8,18.34,East,79,0.0,1.0,91,0.00,,,0.00,Wunderground v.1.15,2013-08-31 05:40:00,
2013-08-31 01:45:00,70.6,67.8,18.34,East,79,0.0,1.0,91,0.00,,,0.00,Wunderground v.1.15,2013-08-31 05:45:00,
2013-08-31 01:50:00,70.6,67.8,18.34,East,79,0.0,1.0,91,0.00,,,0.00,Wunderground v.1.15,2013-08-31 05:50:00,
2013-08-31 01:55:00,70.6,67.8,18.34,East,79,0.0,1.0,91,0.00,,,0.00,Wunderground v.1.15,2013-08-31 05:55:00,
2013-08-31 02:05:00,70.3,67.5,18.34,East,79,0.0,0.0,91,0.00,,,0.00,Wunderground v.1.15,2013-08-31 06:05:00,
2013-08-31 02:15:00,70.4,67.6,18.34,East,79,0.0,2.0,91,0.00,,,0.00,Wunderground v.1.15,2013-08-31 06:15:00,
2013-08-31 02:20:00,70.4,67.3,18.34,East,79,0.0,0.0,90,0.00,,,0.00,Wunderground v.1.15,2013-08-31 06:20:00,
2013-08-31 02:25:00,70.5,67.7,18.34,East,79,0.0,0.0,91,0.00,,,0.00,Wunderground v.1.15,2013-08-31 06:25:00,
2013-08-31 02:30:00,70.5,67.7,18.34,East,79,0.0,0.0,91,0.00,,,0.00,Wunderground v.1.15,2013-08-31 06:30:00,
2013-08-31 02:35:00,70.5,67.7,18.34,East,79,0.0,0.0,91,0.00,,,0.00,Wunderground v.1.15,2013-08-31 06:35:00,
2013-08-31 02:40:00,70.6,67.8,18.34,ENE,74,0.0,0.0,91,0.00,,,0.00,Wunderground v.1.15,2013-08-31 06:40:00,
2013-08-31 02:50:00,71.0,68.2,18.34,ENE,74,1.0,1.0,91,0.00,,,0.00,Wunderground v.1.15,2013-08-31 06:50:00,
2013-08-31 02:55:00,71.1,68.0,18.34,ENE,74,1.0,1.0,90,0.00,,,0.00,Wunderground v.1.15,2013-08-31 06:55:00,
2013-08-31 03:00:00,71.1,68.0,18.34,ENE,74,1.0,2.0,90,0.00,,,0.00,Wunderground v.1.15,2013-08-31 07:00:00,
2013-08-31 03:10:00,71.1,68.0,18.34,ENE,74,1.0,2.0,90,0.00,,,0.00,Wunderground v.1.15,2013-08-31 07:10:00,
2013-08-31 03:20:00,71.0,67.9,18.34,ENE,74,1.0,1.0,90,0.00,,,0.00,Wunderground v.1.15,2013-08-31 07:20:00,
2013-08-31 03:25:00,70.9,67.8,18.34,ENE,74,1.0,1.0,90,0.00,,,0.00,Wunderground v.1.15,2013-08-31 07:25:00,
2013-08-31 03:30:00,70.7,67.9,18.34,ENE,75,0.0,0.0,91,0.00,,,0.00,Wunderground v.1.15,2013-08-31 07:30:00,
2013-08-31 03:35:00,70.6,67.8,18.34,ENE,74,0.0,1.0,91,0.00,,,0.00,Wunderground v.1.15,2013-08-31 07:35:00,
2013-08-31 03:40:00,70.7,67.9,18.34,ENE,74,2.0,3.0,91,0.00,,,0.00,Wunderground v.1.15,2013-08-31 07:40:00,
2013-08-31 03:45:00,70.7,67.9,18.34,ENE,74,3.0,3.0,91,0.00,,,0.00,Wunderground v.1.15,2013-08-31 07:45:00,
2013-08-31 03:55:00,70.8,68.0,18.34,ENE,68,1.0,3.0,91,0.00,,,0.00,Wunderground v.1.15,2013-08-31 07:55:00,
2013-08-31 04:00:00,70.8,68.0,18.34,ENE,68,2.0,2.0,91,0.00,,,0.00,Wunderground v.1.15,2013-08-31 08:00:00,
2013-08-31 04:10:00,70.9,68.1,18.34,ENE,68,2.0,4.0,91,0.00,,,0.00,Wunderground v.1.15,2013-08-31 08:10:00,
2013-08-31 04:15:00,70.8,68.0,18.34,ENE,68,2.0,4.0,91,0.00,,,0.00,Wunderground v.1.15,2013-08-31 08:15:00,
2013-08-31 04:25:00,70.6,67.8,18.34,ENE,78,4.0,6.0,91,0.00,,,0.00,Wunderground v.1.15,2013-08-31 08:25:00,
2013-08-31 04:30:00,70.5,67.7,18.34,ENE,76,5.0,5.0,91,0.00,,,0.00,Wunderground v.1.15,2013-08-31 08:30:00,
2013-08-31 04:35:00,70.5,67.7,18.34,ENE,76,5.0,5.0,91,0.00,,,0.00,Wunderground v.1.15,2013-08-31 08:35:00,
2013-08-31 04:40:00,70.5,67.7,18.34,East,82,4.0,5.0,91,0.00,,,0.00,Wunderground v.1.15,2013-08-31 08:40:00,
2013-08-31 04:45:00,70.4,67.6,18.34,ENE,75,4.0,5.0,91,0.00,,,0.00,Wunderground v.1.15,2013-08-31 08:45:00,
2013-08-31 04:50:00,70.4,67.6,18.34,ENE,77,4.0,5.0,91,0.00,,,0.00,Wunderground v.1.15,2013-08-31 08:50:00,
2013-08-31 05:00:00,70.3,67.5,18.34,East,80,2.0,3.0,91,0.00,,,0.00,Wunderground v.1.15,2013-08-31 09:00:00,
2013-08-31 05:10:00,70.4,67.6,18.34,ENE,69,3.0,3.0,91,0.00,,,0.00,Wunderground v.1.15,2013-08-31 09:10:00,
2013-08-31 05:15:00,70.6,67.8,18.34,ENE,78,3.0,4.0,91,0.00,,,0.00,Wunderground v.1.15,2013-08-31 09:15:00,
2013-08-31 05:20:00,70.9,68.1,18.34,ENE,70,4.0,6.0,91,0.00,,,0.00,Wunderground v.1.15,2013-08-31 09:20:00,
2013-08-31 05:25:00,71.0,68.2,18.34,East,82,4.0,6.0,91,0.00,,,0.00,Wunderground v.1.15,2013-08-31 09:25:00,
2013-08-31 05:35:00,71.3,68.5,18.34,ENE,65,2.0,3.0,91,0.00,,,0.00,Wunderground v.1.15,2013-08-31 09:35:00,
2013-08-31 05:40:00,71.4,68.6,18.34,ENE,65,2.0,4.0,91,0.00,,,0.00,Wunderground v.1.15,2013-08-31 09:40:00,
2013-08-31 05:45:00,71.5,68.7,18.34,ENE,65,1.0,4.0,91,0.00,,,0.00,Wunderground v.1.15,2013-08-31 09:45:00,
2013-08-31 05:50:00,71.5,68.7,18.34,ENE,64,1.0,4.0,91,0.00,,,0.00,Wunderground v.1.15,2013-08-31 09:50:00,
2013-08-31 05:55:00,71.5,68.7,18.34,ENE,64,2.0,4.0,91,0.00,,,0.00,Wunderground v.1.15,2013-08-31 09:55:00,
2013-08-31 06:00:00,71.5,68.7,18.34,ENE,65,2.0,2.0,91,0.00,,,0.00,Wunderground v.1.15,2013-08-31 10:00:00,
2013-08-31 06:10:00,71.3,68.5,18.34,ENE,65,0.0,0.0,91,0.00,,,0.00,Wunderground v.1.15,2013-08-31 10:10:00,
2013-08-31 06:15:00,71.2,68.4,18.34,ENE,65,0.0,0.0,91,0.00,,,0.00,Wunderground v.1.15,2013-08-31 10:15:00,
2013-08-31 06:20:00,71.3,68.5,18.34,ENE,65,0.0,3.0,91,0.00,,,0.00,Wunderground v.1.15,2013-08-31 10:20:00,
2013-08-31 06:25:00,71.5,68.7,18.34,ENE,65,0.0,3.0,91,0.00,,,0.00,Wunderground v.1.15,2013-08-31 10:25:00,
2013-08-31 06:30:00,71.7,68.9,18.34,ENE,65,0.0,0.0,91,0.00,,,0.00,Wunderground v.1.15,2013-08-31 10:30:00,
2013-08-31 06:35:00,71.6,68.8,18.34,ENE,65,0.0,8.0,91,0.00,,,0.00,Wunderground v.1.15,2013-08-31 10:35:00,
2013-08-31 06:40:00,71.6,68.8,18.34,ENE,64,0.0,8.0,91,0.00,,,0.00,Wunderground v.1.15,2013-08-31 10:40:00,
2013-08-31 06:45:00,71.5,68.7,18.34,ENE,64,0.0,8.0,91,0.00,,,0.00,Wunderground v.1.15,2013-08-31 10:45:00,
2013-08-31 06:50:00,71.4,68.6,18.34,ENE,64,0.0,8.0,91,0.00,,,0.00,Wunderground v.1.15,2013-08-31 10:50:00,
2013-08-31 06:55:00,71.3,68.5,18.34,ENE,64,0.0,8.0,91,0.00,,,0.00,Wunderground v.1.15,2013-08-31 10:55:00,
2013-08-31 07:00:00,71.2,68.4,18.34,ENE,64,0.0,0.0,91,0.00,,,0.00,Wunderground v.1.15,2013-08-31 11:00:00,
2013-08-31 07:10:00,71.2,68.4,18.34,ENE,64,0.0,0.0,91,0.00,,,0.00,Wunderground v.1.15,2013-08-31 11:10:00,
2013-08-31 07:15:00,71.3,68.9,18.34,ENE,64,0.0,0.0,92,0.00,,,0.00,Wunderground v.1.15,2013-08-31 11:15:00,
2013-08-31 07:20:00,71.3,68.9,18.34,ENE,64,0.0,0.0,92,0.00,,,0.00,Wunderground v.1.15,2013-08-31 11:20:00,
2013-08-31 07:25:00,71.5,69.1,18.34,ENE,64,0.0,3.0,92,0.00,,,0.00,Wunderground v.1.15,2013-08-31 11:25:00,
2013-08-31 07:30:00,71.7,69.3,18.34,ENE,64,1.0,1.0,92,0.00,,,0.00,Wunderground v.1.15,2013-08-31 11:30:00,
2013-08-31 07:35:00,71.6,68.8,18.34,ENE,65,1.0,1.0,91,0.00,,,0.00,Wunderground v.1.15,2013-08-31 11:35:00,
2013-08-31 07:40:00,71.7,68.9,18.34,ENE,64,1.0,1.0,91,0.00,,,0.00,Wunderground v.1.15,2013-08-31 11:40:00,
2013-08-31 07:45:00,71.6,68.8,18.34,ENE,64,1.0,1.0,91,0.00,,,0.00,Wunderground v.1.15,2013-08-31 11:45:00,
2013-08-31 07:50:00,71.6,69.2,18.34,ENE,64,0.0,0.0,92,0.00,,,0.00,Wunderground v.1.15,2013-08-31 11:50:00,
2013-08-31 07:55:00,71.6,69.2,18.34,ENE,64,0.0,0.0,92,0.00,,,0.00,Wunderground v.1.15,2013-08-31 11:55:00,
2013-08-31 08:00:00,71.6,69.2,18.34,ENE,64,0.0,0.0,92,0.00,,,0.00,Wunderground v.1.15,2013-08-31 12:00:00,
2013-08-31 08:10:00,71.7,69.3,18.34,ENE,64,1.0,1.0,92,0.00,,,0.00,Wunderground v.1.15,2013-08-31 12:10:00,
2013-08-31 08:15:00,71.9,69.4,18.34,ENE,65,1.0,1.0,92,0.00,,,0.00,Wunderground v.1.15,2013-08-31 12:15:00,
2013-08-31 08:20:00,72.1,69.6,18.34,ENE,64,1.0,1.0,92,0.00,,,0.00,Wunderground v.1.15,2013-08-31 12:20:00,
2013-08-31 08:25:00,72.2,69.7,18.34,ENE,65,2.0,5.0,92,0.00,,,0.00,Wunderground v.1.15,2013-08-31 12:25:00,
2013-08-31 08:30:00,72.3,69.5,18.34,ENE,65,2.0,2.0,91,0.00,,,0.00,Wunderground v.1.15,2013-08-31 12:30:00,
2013-08-31 08:40:00,72.3,69.5,18.34,East,80,3.0,4.0,91,0.00,,,0.00,Wunderground v.1.15,2013-08-31 12:40:00,
2013-08-31 08:50:00,72.6,69.8,18.34,ENE,70,3.0,3.0,91,0.00,,,0.00,Wunderground v.1.15,2013-08-31 12:50:00,
2013-08-31 08:55:00,72.7,69.9,18.34,ENE,70,2.0,3.0,91,0.00,,,0.00,Wunderground v.1.15,2013-08-31 12:55:00,
2013-08-31 09:00:00,72.8,70.0,18.34,ENE,70,1.0,3.0,91,0.00,,,0.00,Wunderground v.1.15,2013-08-31 13:00:00,
2013-08-31 09:10:00,72.8,70.0,18.34,ENE,70,1.0,1.0,91,0.00,,,0.00,Wunderground v.1.15,2013-08-31 13:10:00,
2013-08-31 09:15:00,72.8,70.0,18.34,ENE,70,1.0,1.0,91,0.00,,,0.00,Wunderground v.1.15,2013-08-31 13:15:00,
2013-08-31 09:20:00,72.8,70.0,18.34,ENE,72,1.0,2.0,91,0.00,,,0.00,Wunderground v.1.15,2013-08-31 13:20:00,
2013-08-31 09:25:00,72.9,70.1,18.34,ENE,72,1.0,2.0,91,0.00,,,0.00,Wunderground v.1.15,2013-08-31 13:25:00,
2013-08-31 09:30:00,72.9,70.1,18.34,ENE,72,1.0,1.0,91,0.00,,,0.00,Wunderground v.1.15,2013-08-31 13:30:00,
2013-08-31 09:35:00,72.9,70.1,18.34,East,80,1.0,4.0,91,0.00,,,0.00,Wunderground v.1.15,2013-08-31 13:35:00,
2013-08-31 09:40:00,73.0,70.2,18.34,ENE,76,1.0,3.0,91,0.00,,,0.00,Wunderground v.1.15,2013-08-31 13:40:00,
2013-08-31 09:45:00,73.0,70.2,18.34,East,80,2.0,3.0,91,0.00,,,0.00,Wunderground v.1.15,2013-08-31 13:45:00,
2013-08-31 09:55:00,73.2,70.4,18.34,ENE,72,2.0,6.0,91,0.00,,,0.00,Wunderground v.1.15,2013-08-31 13:55:00,
2013-08-31 10:00:00,73.4,70.6,18.34,ENE,65,3.0,4.0,91,0.00,,,0.00,Wunderground v.1.15,2013-08-31 14:00:00,
2013-08-31 10:10:00,73.6,70.8,18.34,East,86,3.0,3.0,91,0.00,,,0.00,Wunderground v.1.15,2013-08-31 14:10:00,
2013-08-31 10:15:00,74.0,71.2,18.34,ENE,62,2.0,3.0,91,0.00,,,0.00,Wunderground v.1.15,2013-08-31 14:15:00,
2013-08-31 10:20:00,74.5,71.4,18.34,East,79,2.0,5.0,90,0.00,,,0.00,Wunderground v.1.15,2013-08-31 14:20:00,
2013-08-31 10:30:00,74.2,70.7,18.34,East,82,4.0,4.0,89,0.00,,,0.00,Wunderground v.1.15,2013-08-31 14:30:00,
2013-08-31 10:35:00,74.1,71.0,18.34,East,84,3.0,4.0,90,0.00,,,0.00,Wunderground v.1.15,2013-08-31 14:35:00,
2013-08-31 10:40:00,74.2,71.1,18.34,East,81,2.0,5.0,90,0.00,,,0.00,Wunderground v.1.15,2013-08-31 14:40:00,
2013-08-31 10:45:00,74.2,71.1,18.34,ENE,74,3.0,5.0,90,0.00,,,0.00,Wunderground v.1.15,2013-08-31 14:45:00,
2013-08-31 10:50:00,74.4,71.3,18.34,ENE,72,4.0,4.0,90,0.00,,,0.00,Wunderground v.1.15,2013-08-31 14:50:00,
2013-08-31 11:00:00,74.9,71.8,18.34,ENE,72,3.0,3.0,90,0.00,,,0.00,Wunderground v.1.15,2013-08-31 15:00:00,
2013-08-31 11:10:00,75.2,71.7,18.34,ENE,76,3.0,3.0,89,0.00,,,0.01,Wunderground v.1.15,2013-08-31 15:10:00,
2013-08-31 11:15:00,75.2,71.7,18.34,East,82,2.0,3.0,89,0.00,,,0.01,Wunderground v.1.15,2013-08-31 15:15:00,
2013-08-31 11:20:00,75.1,71.6,18.34,ENE,75,3.0,4.0,89,0.00,,,0.01,Wunderground v.1.15,2013-08-31 15:20:00,
2013-08-31 11:25:00,75.1,71.6,18.34,East,93,4.0,4.0,89,0.00,,,0.01,Wunderground v.1.15,2013-08-31 15:25:00,
2013-08-31 11:35:00,75.4,71.9,18.34,East,88,3.0,9.0,89,0.00,,,0.01,Wunderground v.1.15,2013-08-31 15:35:00,
2013-08-31 11:40:00,75.5,71.7,18.34,ENE,67,3.0,9.0,88,0.00,,,0.01,Wunderground v.1.15,2013-08-31 15:40:00,
2013-08-31 11:45:00,75.5,71.7,18.34,East,86,3.0,9.0,88,0.00,,,0.01,Wunderground v.1.15,2013-08-31 15:45:00,
2013-08-31 11:50:00,75.7,71.9,18.34,East,86,2.0,2.0,88,0.00,,,0.01,Wunderground v.1.15,2013-08-31 15:50:00,
2013-08-31 11:55:00,76.0,72.2,18.34,East,85,1.0,9.0,88,0.00,,,0.01,Wunderground v.1.15,2013-08-31 15:55:00,
2013-08-31 12:00:00,76.0,72.2,18.34,East,85,1.0,1.0,88,0.00,,,0.01,Wunderground v.1.15,2013-08-31 16:00:00,
2013-08-31 12:10:00,75.8,72.0,18.34,East,84,0.0,0.0,88,0.00,,,0.01,Wunderground v.1.15,2013-08-31 16:10:00,
2013-08-31 12:15:00,76.0,72.2,18.34,East,84,1.0,1.0,88,0.00,,,0.01,Wunderground v.1.15,2013-08-31 16:15:00,
2013-08-31 12:20:00,76.1,72.3,18.34,East,81,1.0,1.0,88,0.00,,,0.01,Wunderground v.1.15,2013-08-31 16:20:00,
2013-08-31 12:25:00,76.2,72.4,18.34,East,82,1.0,1.0,88,0.00,,,0.01,Wunderground v.1.15,2013-08-31 16:25:00,
2013-08-31 12:30:00,76.0,72.5,18.34,East,86,0.0,0.0,89,0.00,,,0.01,Wunderground v.1.15,2013-08-31 16:30:00,
2013-08-31 12:40:00,75.7,72.6,18.34,East,88,0.0,0.0,90,0.00,,,0.01,Wunderground v.1.15,2013-08-31 16:40:00,
2013-08-31 12:45:00,75.5,72.7,18.34,East,88,0.0,0.0,91,0.00,,,0.01,Wunderground v.1.15,2013-08-31 16:45:00,
2013-08-31 12:50:00,75.7,73.2,18.34,East,88,0.0,0.0,92,0.00,,,0.01,Wunderground v.1.15,2013-08-31 16:50:00,
2013-08-31 12:55:00,75.6,73.1,18.34,East,88,0.0,0.0,92,0.00,,,0.01,Wunderground v.1.15,2013-08-31 16:55:00,
2013-08-31 13:00:00,75.8,73.3,18.34,East,88,0.0,0.0,92,0.00,,,0.01,Wunderground v.1.15,2013-08-31 17:00:00,
2013-08-31 13:10:00,76.4,73.9,18.34,East,89,0.0,0.0,92,0.00,,,0.01,Wunderground v.1.15,2013-08-31 17:10:00,
2013-08-31 13:15:00,76.6,73.8,18.34,East,88,0.0,1.0,91,0.00,,,0.01,Wunderground v.1.15,2013-08-31 17:15:00,
2013-08-31 13:20:00,77.1,74.3,18.34,ENE,60,0.0,3.0,91,0.00,,,0.01,Wunderground v.1.15,2013-08-31 17:20:00,
2013-08-31 13:25:00,77.3,73.8,18.34,ENE,66,1.0,3.0,89,0.00,,,0.01,Wunderground v.1.15,2013-08-31 17:25:00,
2013-08-31 13:30:00,77.4,73.9,18.34,ENE,67,1.0,1.0,89,0.00,,,0.01,Wunderground v.1.15,2013-08-31 17:30:00,
2013-08-31 13:35:00,77.7,74.2,18.34,WSW,256,1.0,5.0,89,0.00,,,0.01,Wunderground v.1.15,2013-08-31 17:35:00,
2013-08-31 13:40:00,78.2,74.4,18.34,North,7,1.0,1.0,88,0.00,,,0.01,Wunderground v.1.15,2013-08-31 17:40:00,
2013-08-31 13:50:00,78.9,74.7,18.34,ENE,61,1.0,5.0,87,0.00,,,0.01,Wunderground v.1.15,2013-08-31 17:50:00,
2013-08-31 13:55:00,78.9,74.0,18.34,North,5,2.0,5.0,85,0.00,,,0.01,Wunderground v.1.15,2013-08-31 17:55:00,
2013-08-31 14:00:00,78.6,73.7,18.34,NE,40,3.0,6.0,85,0.00,,,0.01,Wunderground v.1.15,2013-08-31 18:00:00,
2013-08-31 14:10:00,78.5,73.6,18.34,ENE,78,1.0,1.0,85,0.00,,,0.01,Wunderground v.1.15,2013-08-31 18:10:00,
2013-08-31 14:20:00,79.0,73.7,18.34,ENE,58,1.0,7.0,84,0.00,,,0.01,Wunderground v.1.15,2013-08-31 18:20:00,
2013-08-31 14:25:00,79.6,74.0,18.34,South,181,2.0,7.0,83,0.00,,,0.01,Wunderground v.1.15,2013-08-31 18:25:00,
2013-08-31 14:30:00,80.1,74.1,18.34,WSW,257,1.0,1.0,82,0.00,,,0.01,Wunderground v.1.15,2013-08-31 18:30:00,
2013-08-31 14:35:00,80.0,73.3,18.34,South,182,1.0,1.0,80,0.00,,,0.01,Wunderground v.1.15,2013-08-31 18:35:00,
2013-08-31 14:45:00,80.1,73.4,18.34,North,357,2.0,2.0,80,0.00,,,0.01,Wunderground v.1.15,2013-08-31 18:45:00,
2013-08-31 14:50:00,80.6,73.9,18.34,ENE,61,2.0,4.0,80,0.00,,,0.01,Wunderground v.1.15,2013-08-31 18:50:00,
2013-08-31 14:55:00,80.8,73.7,18.34,NNE,32,1.0,5.0,79,0.00,,,0.01,Wunderground v.1.15,2013-08-31 18:55:00,
2013-08-31 15:00:00,80.8,73.7,18.34,ENE,64,2.0,2.0,79,0.00,,,0.01,Wunderground v.1.15,2013-08-31 19:00:00,
2013-08-31 15:10:00,80.9,73.4,18.34,South,176,2.0,2.0,78,0.00,,,0.02,Wunderground v.1.15,2013-08-31 19:10:00,
2013-08-31 15:15:00,81.3,73.8,18.34,SW,235,3.0,5.0,78,0.00,,,0.02,Wunderground v.1.15,2013-08-31 19:15:00,
2013-08-31 15:25:00,80.7,73.2,18.34,South,174,2.0,9.0,78,0.00,,,0.02,Wunderground v.1.15,2013-08-31 19:25:00,
2013-08-31 15:30:00,80.6,73.5,18.34,SSW,204,2.0,3.0,79,0.00,,,0.02,Wunderground v.1.15,2013-08-31 19:30:00,
2013-08-31 15:35:00,80.2,73.1,18.34,SW,215,2.0,5.0,79,0.00,,,0.02,Wunderground v.1.15,2013-08-31 19:35:00,
2013-08-31 15:40:00,79.9,72.8,18.34,South,183,2.0,2.0,79,0.00,,,0.02,Wunderground v.1.15,2013-08-31 19:40:00,
2013-08-31 15:45:00,79.8,72.3,18.34,South,181,1.0,2.0,78,0.00,,,0.02,Wunderground v.1.15,2013-08-31 19:45:00,
2013-08-31 15:50:00,79.7,72.6,18.34,South,188,1.0,1.0,79,0.00,,,0.02,Wunderground v.1.15,2013-08-31 19:50:00,
2013-08-31 15:55:00,80.0,72.9,18.34,SSW,198,1.0,1.0,79,0.00,,,0.02,Wunderground v.1.15,2013-08-31 19:55:00,
2013-08-31 16:00:00,80.1,72.6,18.34,SSW,203,2.0,3.0,78,0.00,,,0.02,Wunderground v.1.15,2013-08-31 20:00:00,
2013-08-31 16:10:00,80.3,72.4,18.34,SW,220,1.0,1.0,77,0.00,,,0.02,Wunderground v.1.15,2013-08-31 20:10:00,
2013-08-31 16:15:00,80.4,71.7,18.34,SW,225,2.0,3.0,75,0.00,,,0.02,Wunderground v.1.15,2013-08-31 20:15:00,
2013-08-31 16:20:00,80.5,72.2,18.34,South,170,2.0,7.0,76,0.00,,,0.02,Wunderground v.1.15,2013-08-31 20:20:00,
2013-08-31 16:30:00,80.8,72.5,18.34,South,172,2.0,4.0,76,0.00,,,0.02,Wunderground v.1.15,2013-08-31 20:30:00,
2013-08-31 16:35:00,80.9,72.6,18.34,South,190,1.0,4.0,76,0.00,,,0.02,Wunderground v.1.15,2013-08-31 20:35:00,
2013-08-31 16:40:00,81.1,72.8,18.34,WSW,257,1.0,1.0,76,0.00,,,0.02,Wunderground v.1.15,2013-08-31 20:40:00,
2013-08-31 16:45:00,81.0,71.9,18.34,SSW,204,1.0,1.0,74,0.00,,,0.02,Wunderground v.1.15,2013-08-31 20:45:00,
2013-08-31 16:50:00,81.1,72.4,18.34,South,180,1.0,1.0,75,0.00,,,0.02,Wunderground v.1.15,2013-08-31 20:50:00,
2013-08-31 17:00:00,80.9,73.0,18.34,SSW,197,1.0,2.0,77,0.00,,,0.02,Wunderground v.1.15,2013-08-31 21:00:00,
2013-08-31 17:10:00,80.0,72.5,18.34,South,181,2.0,5.0,78,0.00,,,0.02,Wunderground v.1.15,2013-08-31 21:10:00,
2013-08-31 17:15:00,80.0,72.9,18.34,SSW,193,1.0,5.0,79,0.00,,,0.02,Wunderground v.1.15,2013-08-31 21:15:00,
2013-08-31 17:20:00,79.8,72.7,18.34,South,177,1.0,1.0,79,0.00,,,0.02,Wunderground v.1.15,2013-08-31 21:20:00,
2013-08-31 17:25:00,79.6,72.9,18.34,South,180,1.0,1.0,80,0.00,,,0.02,Wunderground v.1.15,2013-08-31 21:25:00,
2013-08-31 17:30:00,79.4,72.7,18.34,WSW,237,1.0,1.0,80,0.00,,,0.02,Wunderground v.1.15,2013-08-31 21:30:00,
2013-08-31 17:40:00,78.7,73.1,18.34,South,186,2.0,11.0,83,0.00,,,0.02,Wunderground v.1.15,2013-08-31 21:40:00,
2013-08-31 17:45:00,78.0,73.1,18.34,SSW,193,3.0,11.0,85,0.00,,,0.02,Wunderground v.1.15,2013-08-31 21:45:00,
2013-08-31 17:50:00,77.7,73.2,18.34,SSW,195,3.0,3.0,86,0.00,,,0.02,Wunderground v.1.15,2013-08-31 21:50:00,
2013-08-31 17:55:00,77.5,73.0,18.34,South,188,2.0,11.0,86,0.00,,,0.02,Wunderground v.1.15,2013-08-31 21:55:00,
2013-08-31 18:00:00,77.3,72.8,18.34,SW,223,1.0,2.0,86,0.00,,,0.02,Wunderground v.1.15,2013-08-31 22:00:00,
2013-08-31 18:10:00,76.7,72.9,18.34,West,262,1.0,7.0,88,0.00,,,0.02,Wunderground v.1.15,2013-08-31 22:10:00,
2013-08-31 18:15:00,76.2,72.4,18.34,West,266,2.0,7.0,88,0.00,,,0.02,Wunderground v.1.15,2013-08-31 22:15:00,
2013-08-31 18:20:00,75.5,71.7,18.34,West,261,4.0,4.0,88,0.00,,,0.02,Wunderground v.1.15,2013-08-31 22:20:00,
2013-08-31 18:25:00,75.2,71.7,18.34,SW,218,3.0,4.0,89,0.00,,,0.02,Wunderground v.1.15,2013-08-31 22:25:00,
2013-08-31 18:30:00,74.9,71.4,18.34,SSW,193,1.0,1.0,89,0.00,,,0.02,Wunderground v.1.15,2013-08-31 22:30:00,
2013-08-31 18:40:00,74.3,70.8,18.34,South,184,0.0,9.0,89,0.00,,,0.02,Wunderground v.1.15,2013-08-31 22:40:00,
2013-08-31 18:45:00,74.1,71.0,18.34,WSW,257,1.0,9.0,90,0.00,,,0.02,Wunderground v.1.15,2013-08-31 22:45:00,
2013-08-31 18:50:00,73.9,70.8,18.34,WSW,251,0.0,9.0,90,0.00,,,0.02,Wunderground v.1.15,2013-08-31 22:50:00,
2013-08-31 18:55:00,73.7,70.6,18.34,WSW,238,0.0,9.0,90,0.00,,,0.02,Wunderground v.1.15,2013-08-31 22:55:00,
2013-08-31 19:00:00,73.4,70.3,18.34,West,259,1.0,1.0,90,0.00,,,0.02,Wunderground v.1.15,2013-08-31 23:00:00,
2013-08-31 19:10:00,72.7,69.6,18.34,South,179,1.0,1.0,90,0.00,,,0.02,Wunderground v.1.15,2013-08-31 23:10:00,
2013-08-31 19:15:00,72.5,69.7,18.34,South,180,0.0,1.0,91,0.00,,,0.03,Wunderground v.1.15,2013-08-31 23:15:00,
2013-08-31 19:20:00,72.4,69.6,18.34,SSW,196,0.0,2.0,91,0.00,,,0.03,Wunderground v.1.15,2013-08-31 23:20:00,
2013-08-31 19:25:00,72.2,69.4,18.34,SSW,205,0.0,2.0,91,0.00,,,0.03,Wunderground v.1.15,2013-08-31 23:25:00,
2013-08-31 19:30:00,72.0,69.5,18.34,SW,215,0.0,0.0,92,0.00,,,0.03,Wunderground v.1.15,2013-08-31 23:30:00,
2013-08-31 19:35:00,71.7,69.3,18.34,SW,215,0.0,0.0,92,0.00,,,0.03,Wunderground v.1.15,2013-08-31 23:35:00,
2013-08-31 19:40:00,71.3,68.9,18.34,SW,229,0.0,4.0,92,0.00,,,0.03,Wunderground v.1.15,2013-08-31 23:40:00,
2013-08-31 19:50:00,70.9,68.8,18.34,SW,229,0.0,0.0,93,0.00,,,0.03,Wunderground v.1.15,2013-08-31 23:50:00,
2013-08-31 19:55:00,70.8,68.7,18.34,SW,228,0.0,0.0,93,0.00,,,0.03,Wunderground v.1.15,2013-08-31 23:55:00,
2013-08-31 20:00:00,70.8,68.7,18.34,SW,229,0.0,0.0,93,0.00,,,0.03,Wunderground v.1.15,2013-09-01 00:00:00,
2013-08-31 20:10:00,70.6,68.5,18.34,SW,229,0.0,0.0,93,0.00,,,0.03,Wunderground v.1.15,2013-09-01 00:10:00,
2013-08-31 20:20:00,70.2,68.1,18.34,SW,229,0.0,0.0,93,0.00,,,0.03,Wunderground v.1.15,2013-09-01 00:20:00,
2013-08-31 20:25:00,70.0,67.9,18.34,SW,229,0.0,0.0,93,0.00,,,0.03,Wunderground v.1.15,2013-09-01 00:25:00,
2013-08-31 20:30:00,69.8,67.7,18.34,SW,228,0.0,0.0,93,0.00,,,0.03,Wunderground v.1.15,2013-09-01 00:30:00,
2013-08-31 20:35:00,69.7,67.6,18.34,SW,228,0.0,5.0,93,0.00,,,0.03,Wunderground v.1.15,2013-09-01 00:35:00,
2013-08-31 20:40:00,69.5,67.4,18.34,SW,228,0.0,5.0,93,0.00,,,0.03,Wunderground v.1.15,2013-09-01 00:40:00,
2013-08-31 20:45:00,69.4,67.6,18.34,SW,228,0.0,5.0,94,0.00,,,0.03,Wunderground v.1.15,2013-09-01 00:45:00,
2013-08-31 20:55:00,69.2,67.4,18.34,SW,228,0.0,5.0,94,0.00,,,0.03,Wunderground v.1.15,2013-09-01 00:55:00,
2013-08-31 21:00:00,69.2,67.4,18.34,SW,228,0.0,0.0,94,0.00,,,0.03,Wunderground v.1.15,2013-09-01 01:00:00,
2013-08-31 21:10:00,69.3,67.5,18.34,SW,228,0.0,0.0,94,0.00,,,0.03,Wunderground v.1.15,2013-09-01 01:10:00,
2013-08-31 21:15:00,69.4,67.6,18.34,SW,228,0.0,0.0,94,0.00,,,0.03,Wunderground v.1.15,2013-09-01 01:15:00,
2013-08-31 21:25:00,69.3,67.5,18.34,SW,228,0.0,0.0,94,0.00,,,0.03,Wunderground v.1.15,2013-09-01 01:25:00,
2013-08-31 21:30:00,69.2,67.4,18.34,SW,228,0.0,0.0,94,0.00,,,0.03,Wunderground v.1.15,2013-09-01 01:30:00,
2013-08-31 21:35:00,69.3,67.5,18.34,SW,228,0.0,0.0,94,0.00,,,0.03,Wunderground v.1.15,2013-09-01 01:35:00,
2013-08-31 21:40:00,69.3,67.5,18.34,SW,228,0.0,0.0,94,0.00,,,0.03,Wunderground v.1.15,2013-09-01 01:40:00,
2013-08-31 21:45:00,69.4,67.6,18.34,SW,228,0.0,0.0,94,0.00,,,0.03,Wunderground v.1.15,2013-09-01 01:45:00,
2013-08-31 21:50:00,69.4,67.6,18.34,SW,228,0.0,0.0,94,0.00,,,0.03,Wunderground v.1.15,2013-09-01 01:50:00,
2013-08-31 22:00:00,69.2,67.4,18.34,SW,228,0.0,0.0,94,0.00,,,0.03,Wunderground v.1.15,2013-09-01 02:00:00,
2013-08-31 22:10:00,68.9,67.1,18.34,SW,228,0.0,0.0,94,0.00,,,0.03,Wunderground v.1.15,2013-09-01 02:10:00,
2013-08-31 22:20:00,68.5,66.7,18.34,SW,228,0.0,0.0,94,0.00,,,0.03,Wunderground v.1.15,2013-09-01 02:20:00,
2013-08-31 22:30:00,68.3,66.5,18.34,SW,228,0.0,0.0,94,0.00,,,0.03,Wunderground v.1.15,2013-09-01 02:30:00,
2013-08-31 22:35:00,68.1,66.3,18.34,SW,228,0.0,0.0,94,0.00,,,0.03,Wunderground v.1.15,2013-09-01 02:35:00,
2013-08-31 22:40:00,67.8,66.0,18.34,SW,228,0.0,0.0,94,0.00,,,0.03,Wunderground v.1.15,2013-09-01 02:40:00,
2013-08-31 22:45:00,67.7,65.9,18.34,SW,228,0.0,0.0,94,0.00,,,0.04,Wunderground v.1.15,2013-09-01 02:45:00,
2013-08-31 22:50:00,67.7,66.2,18.34,SW,228,0.0,0.0,95,0.00,,,0.04,Wunderground v.1.15,2013-09-01 02:50:00,
2013-08-31 22:55:00,67.6,66.1,18.34,SW,228,0.0,0.0,95,0.00,,,0.04,Wunderground v.1.15,2013-09-01 02:55:00,
2013-08-31 23:00:00,67.5,66.0,18.34,SW,228,0.0,0.0,95,0.00,,,0.04,Wunderground v.1.15,2013-09-01 03:00:00,
2013-08-31 23:10:00,67.5,66.0,18.34,SW,228,0.0,0.0,95,0.00,,,0.04,Wunderground v.1.15,2013-09-01 03:10:00,
2013-08-31 23:15:00,67.3,65.5,18.34,SW,228,0.0,0.0,94,0.00,,,0.04,Wunderground v.1.15,2013-09-01 03:15:00,
2013-08-31 23:20:00,67.2,65.7,18.34,SW,228,0.0,0.0,95,0.00,,,0.04,Wunderground v.1.15,2013-09-01 03:20:00,
2013-08-31 23:25:00,67.3,65.8,18.34,SW,228,0.0,0.0,95,0.00,,,0.04,Wunderground v.1.15,2013-09-01 03:25:00,
2013-08-31 23:35:00,67.2,65.7,18.34,SW,228,0.0,0.0,95,0.00,,,0.04,Wunderground v.1.15,2013-09-01 03:35:00,
2013-08-31 23:40:00,67.2,65.7,18.34,SW,228,0.0,0.0,95,0.00,,,0.04,Wunderground v.1.15,2013-09-01 03:40:00,
2013-08-31 23:45:00,67.0,65.5,18.34,SW,228,0.0,0.0,95,0.00,,,0.04,Wunderground v.1.15,2013-09-01 03:45:00,
2013-08-31 23:50:00,66.9,65.4,18.34,SW,228,0.0,0.0,95,0.00,,,0.04,Wunderground v.1.15,2013-09-01 03:50:00,
2013-08-31 23:55:00,66.7,65.2,18.34,SW,228,0.0,0.0,95,0.00,,,0.04,Wunderground v.1.15,2013-09-01 03:55:00,